sensor_id;sensor_type;location;lat;lon;timestamp;pressure;altitude;pressure_sealevel;temperature;humidity
75656;BME280;64252;51.094;13.714;2024-01-11T00:00:28;101820.25;;;0.65;47.57
75656;BME280;64252;51.094;13.714;2024-01-11T00:02:54;101821.63;;;1.07;46.31
75656;BME280;64252;51.094;13.714;2024-01-11T00:05:20;101816.94;;;1.02;45.99
75656;BME280;64252;51.094;13.714;2024-01-11T00:07:48;101818.03;;;0.62;47.53
75656;BME280;64252;51.094;13.714;2024-01-11T00:10:15;101819.38;;;0.26;47.50
75656;BME280;64252;51.094;13.714;2024-01-11T00:12:41;101825.53;;;0.13;48.39
75656;BME280;64252;51.094;13.714;2024-01-11T00:15:06;101806.34;;;0.16;48.13
75656;BME280;64252;51.094;13.714;2024-01-11T00:17:32;101810.19;;;0.30;47.83
75656;BME280;64252;51.094;13.714;2024-01-11T00:19:58;101816.50;;;0.41;47.53
75656;BME280;64252;51.094;13.714;2024-01-11T00:22:24;101806.28;;;0.75;46.60
75656;BME280;64252;51.094;13.714;2024-01-11T00:24:49;101809.47;;;0.54;46.85
75656;BME280;64252;51.094;13.714;2024-01-11T00:27:15;101810.63;;;0.48;47.10
75656;BME280;64252;51.094;13.714;2024-01-11T00:29:41;101809.66;;;0.67;46.76
75656;BME280;64252;51.094;13.714;2024-01-11T00:32:06;101796.09;;;0.17;48.02
75656;BME280;64252;51.094;13.714;2024-01-11T00:34:32;101795.31;;;0.55;47.47
75656;BME280;64252;51.094;13.714;2024-01-11T00:36:57;101792.22;;;0.57;46.82
75656;BME280;64252;51.094;13.714;2024-01-11T00:39:23;101794.16;;;0.61;46.96
75656;BME280;64252;51.094;13.714;2024-01-11T00:41:49;101806.41;;;0.60;47.00
75656;BME280;64252;51.094;13.714;2024-01-11T00:44:16;101794.09;;;0.66;46.74
75656;BME280;64252;51.094;13.714;2024-01-11T00:46:42;101794.81;;;0.43;47.73
75656;BME280;64252;51.094;13.714;2024-01-11T00:49:07;101795.78;;;0.23;47.77
75656;BME280;64252;51.094;13.714;2024-01-11T00:51:33;101790.25;;;0.62;46.89
75656;BME280;64252;51.094;13.714;2024-01-11T00:54:01;101788.63;;;0.56;46.77
75656;BME280;64252;51.094;13.714;2024-01-11T00:56:27;101791.41;;;0.56;47.03
75656;BME280;64252;51.094;13.714;2024-01-11T00:58:53;101785.41;;;0.39;47.57
75656;BME280;64252;51.094;13.714;2024-01-11T01:01:18;101779.16;;;0.18;48.24
75656;BME280;64252;51.094;13.714;2024-01-11T01:03:44;101780.47;;;0.26;47.84
75656;BME280;64252;51.094;13.714;2024-01-11T01:06:10;101777.63;;;0.41;47.66
75656;BME280;64252;51.094;13.714;2024-01-11T01:08:36;101769.63;;;0.29;47.62
75656;BME280;64252;51.094;13.714;2024-01-11T01:11:02;101762.72;;;0.22;48.11
75656;BME280;64252;51.094;13.714;2024-01-11T01:13:28;101761.50;;;0.38;47.53
75656;BME280;64252;51.094;13.714;2024-01-11T01:15:54;101750.84;;;0.11;48.01
75656;BME280;64252;51.094;13.714;2024-01-11T01:18:20;101744.69;;;-0.40;49.03
75656;BME280;64252;51.094;13.714;2024-01-11T01:20:45;101761.91;;;-0.43;49.35
75656;BME280;64252;51.094;13.714;2024-01-11T01:23:11;101764.38;;;-0.41;49.07
75656;BME280;64252;51.094;13.714;2024-01-11T01:25:37;101777.97;;;-0.40;49.24
75656;BME280;64252;51.094;13.714;2024-01-11T01:28:02;101775.25;;;-0.65;49.69
75656;BME280;64252;51.094;13.714;2024-01-11T01:30:28;101780.13;;;-0.17;48.50
75656;BME280;64252;51.094;13.714;2024-01-11T01:32:54;101792.84;;;-0.01;47.79
75656;BME280;64252;51.094;13.714;2024-01-11T01:35:19;101789.25;;;-0.06;48.08
75656;BME280;64252;51.094;13.714;2024-01-11T01:37:45;101789.50;;;-0.03;48.38
75656;BME280;64252;51.094;13.714;2024-01-11T01:40:11;101797.22;;;0.06;48.17
75656;BME280;64252;51.094;13.714;2024-01-11T01:42:44;101783.00;;;0.22;47.49
75656;BME280;64252;51.094;13.714;2024-01-11T01:45:11;101784.97;;;0.17;47.99
75656;BME280;64252;51.094;13.714;2024-01-11T01:47:38;101792.25;;;0.08;47.70
75656;BME280;64252;51.094;13.714;2024-01-11T01:50:06;101792.06;;;-0.21;48.96
75656;BME280;64252;51.094;13.714;2024-01-11T01:52:33;101781.16;;;0.03;48.38
75656;BME280;64252;51.094;13.714;2024-01-11T01:55:01;101767.84;;;0.05;48.16
75656;BME280;64252;51.094;13.714;2024-01-11T01:57:27;101780.13;;;-0.17;48.39
75656;BME280;64252;51.094;13.714;2024-01-11T01:59:53;101783.31;;;0.16;48.15
75656;BME280;64252;51.094;13.714;2024-01-11T02:02:20;101784.56;;;-0.16;48.06
75656;BME280;64252;51.094;13.714;2024-01-11T02:04:46;101804.06;;;-0.41;49.03
75656;BME280;64252;51.094;13.714;2024-01-11T02:07:13;101796.97;;;0.02;47.88
75656;BME280;64252;51.094;13.714;2024-01-11T02:09:40;101788.38;;;0.04;47.88
75656;BME280;64252;51.094;13.714;2024-01-11T02:12:07;101788.03;;;0.15;47.44
75656;BME280;64252;51.094;13.714;2024-01-11T02:14:39;101789.38;;;0.28;46.94
75656;BME280;64252;51.094;13.714;2024-01-11T02:17:05;101797.63;;;-0.21;47.96
75656;BME280;64252;51.094;13.714;2024-01-11T02:19:31;101784.84;;;-0.17;47.99
75656;BME280;64252;51.094;13.714;2024-01-11T02:22:05;101783.16;;;-0.13;48.16
75656;BME280;64252;51.094;13.714;2024-01-11T02:24:33;101786.94;;;-0.73;49.31
75656;BME280;64252;51.094;13.714;2024-01-11T02:27:01;101794.13;;;-0.62;49.45
75656;BME280;64252;51.094;13.714;2024-01-11T02:29:28;101797.97;;;-0.38;48.54
75656;BME280;64252;51.094;13.714;2024-01-11T02:31:55;101796.31;;;-0.49;48.68
75656;BME280;64252;51.094;13.714;2024-01-11T02:34:22;101796.53;;;-0.30;48.58
75656;BME280;64252;51.094;13.714;2024-01-11T02:36:49;101798.50;;;-0.41;48.83
75656;BME280;64252;51.094;13.714;2024-01-11T02:39:16;101804.81;;;-0.10;47.91
75656;BME280;64252;51.094;13.714;2024-01-11T02:41:44;101801.59;;;-0.42;48.43
75656;BME280;64252;51.094;13.714;2024-01-11T02:44:10;101817.94;;;-0.46;48.55
75656;BME280;64252;51.094;13.714;2024-01-11T02:46:36;101805.72;;;-0.30;48.15
75656;BME280;64252;51.094;13.714;2024-01-11T02:49:02;101822.84;;;-0.13;47.64
75656;BME280;64252;51.094;13.714;2024-01-11T02:51:28;101816.53;;;-0.33;48.24
75656;BME280;64252;51.094;13.714;2024-01-11T02:53:53;101812.94;;;-0.29;47.76
75656;BME280;64252;51.094;13.714;2024-01-11T02:56:19;101822.13;;;-0.43;48.08
75656;BME280;64252;51.094;13.714;2024-01-11T02:58:44;101817.16;;;-0.57;48.82
75656;BME280;64252;51.094;13.714;2024-01-11T03:01:10;101806.81;;;-0.26;47.80
75656;BME280;64252;51.094;13.714;2024-01-11T03:03:36;101804.81;;;-0.05;47.39
75656;BME280;64252;51.094;13.714;2024-01-11T03:06:04;101812.38;;;-0.36;48.26
75656;BME280;64252;51.094;13.714;2024-01-11T03:08:30;101806.25;;;-0.33;48.25
75656;BME280;64252;51.094;13.714;2024-01-11T03:10:56;101811.47;;;-0.06;47.48
75656;BME280;64252;51.094;13.714;2024-01-11T03:13:22;101825.88;;;-0.04;47.19
75656;BME280;64252;51.094;13.714;2024-01-11T03:15:49;101813.78;;;-0.43;47.41
75656;BME280;64252;51.094;13.714;2024-01-11T03:18:14;101809.13;;;-0.78;49.32
75656;BME280;64252;51.094;13.714;2024-01-11T03:20:40;101801.28;;;-0.36;48.31
75656;BME280;64252;51.094;13.714;2024-01-11T03:23:06;101810.19;;;-0.39;48.06
75656;BME280;64252;51.094;13.714;2024-01-11T03:25:32;101800.09;;;-0.10;47.16
75656;BME280;64252;51.094;13.714;2024-01-11T03:27:58;101788.00;;;-0.54;48.27
75656;BME280;64252;51.094;13.714;2024-01-11T03:30:24;101789.88;;;-0.24;48.07
75656;BME280;64252;51.094;13.714;2024-01-11T03:32:50;101792.72;;;-0.50;48.26
75656;BME280;64252;51.094;13.714;2024-01-11T03:35:17;101786.34;;;-0.55;48.78
75656;BME280;64252;51.094;13.714;2024-01-11T03:37:43;101768.09;;;-1.22;50.12
75656;BME280;64252;51.094;13.714;2024-01-11T03:40:10;101755.06;;;-0.81;49.44
75656;BME280;64252;51.094;13.714;2024-01-11T03:42:36;101753.03;;;-0.55;48.52
75656;BME280;64252;51.094;13.714;2024-01-11T03:45:02;101755.84;;;-0.60;48.57
75656;BME280;64252;51.094;13.714;2024-01-11T03:47:28;101751.66;;;-0.42;48.01
75656;BME280;64252;51.094;13.714;2024-01-11T03:49:54;101745.84;;;-0.56;48.38
75656;BME280;64252;51.094;13.714;2024-01-11T03:52:20;101744.19;;;-0.57;48.61
75656;BME280;64252;51.094;13.714;2024-01-11T03:54:45;101743.66;;;-0.74;48.57
75656;BME280;64252;51.094;13.714;2024-01-11T03:57:11;101757.50;;;-0.64;48.07
75656;BME280;64252;51.094;13.714;2024-01-11T03:59:37;101744.00;;;-1.21;49.10
75656;BME280;64252;51.094;13.714;2024-01-11T04:02:03;101745.28;;;-0.53;48.40
75656;BME280;64252;51.094;13.714;2024-01-11T04:04:28;101754.66;;;-0.34;47.68
75656;BME280;64252;51.094;13.714;2024-01-11T04:06:54;101759.16;;;-0.53;47.86
75656;BME280;64252;51.094;13.714;2024-01-11T04:09:20;101752.81;;;-0.79;48.64
75656;BME280;64252;51.094;13.714;2024-01-11T04:11:46;101754.69;;;-0.44;47.78
75656;BME280;64252;51.094;13.714;2024-01-11T04:14:12;101754.13;;;-0.51;47.96
75656;BME280;64252;51.094;13.714;2024-01-11T04:16:41;101743.16;;;-1.07;49.44
75656;BME280;64252;51.094;13.714;2024-01-11T04:19:07;101746.41;;;-0.54;48.78
75656;BME280;64252;51.094;13.714;2024-01-11T04:21:33;101771.44;;;-0.95;48.99
75656;BME280;64252;51.094;13.714;2024-01-11T04:23:59;101770.03;;;-0.97;50.03
75656;BME280;64252;51.094;13.714;2024-01-11T04:26:24;101786.56;;;-0.36;48.38
75656;BME280;64252;51.094;13.714;2024-01-11T04:28:51;101788.59;;;-0.67;49.16
75656;BME280;64252;51.094;13.714;2024-01-11T04:31:17;101792.41;;;-0.38;48.41
75656;BME280;64252;51.094;13.714;2024-01-11T04:33:43;101804.69;;;-1.15;50.22
75656;BME280;64252;51.094;13.714;2024-01-11T04:36:10;101790.81;;;-0.69;49.69
75656;BME280;64252;51.094;13.714;2024-01-11T04:38:36;101808.50;;;-0.45;49.10
75656;BME280;64252;51.094;13.714;2024-01-11T04:41:15;101805.22;;;-0.62;49.70
75656;BME280;64252;51.094;13.714;2024-01-11T04:43:42;101806.25;;;-0.33;48.71
75656;BME280;64252;51.094;13.714;2024-01-11T04:46:22;101804.72;;;0.05;47.37
75656;BME280;64252;51.094;13.714;2024-01-11T04:48:49;101819.56;;;-0.20;47.88
75656;BME280;64252;51.094;13.714;2024-01-11T04:51:16;101819.03;;;-0.42;48.84
75656;BME280;64252;51.094;13.714;2024-01-11T04:53:43;101828.50;;;-0.43;48.86
75656;BME280;64252;51.094;13.714;2024-01-11T04:56:11;101811.28;;;-0.45;48.50
75656;BME280;64252;51.094;13.714;2024-01-11T04:58:39;101812.88;;;-0.19;48.01
75656;BME280;64252;51.094;13.714;2024-01-11T05:01:05;101807.63;;;-0.20;47.86
75656;BME280;64252;51.094;13.714;2024-01-11T05:03:32;101817.94;;;-0.56;48.71
75656;BME280;64252;51.094;13.714;2024-01-11T05:05:58;101799.53;;;-0.12;48.04
75656;BME280;64252;51.094;13.714;2024-01-11T05:08:25;101789.00;;;-0.10;47.77
75656;BME280;64252;51.094;13.714;2024-01-11T05:10:51;101774.81;;;-0.13;47.90
75656;BME280;64252;51.094;13.714;2024-01-11T05:13:17;101784.41;;;-0.65;48.62
75656;BME280;64252;51.094;13.714;2024-01-11T05:15:43;101785.81;;;-0.67;49.43
75656;BME280;64252;51.094;13.714;2024-01-11T05:18:09;101783.88;;;-0.57;49.10
75656;BME280;64252;51.094;13.714;2024-01-11T05:20:35;101786.63;;;-0.57;48.86
75656;BME280;64252;51.094;13.714;2024-01-11T05:23:00;101783.03;;;-0.52;48.47
75656;BME280;64252;51.094;13.714;2024-01-11T05:25:26;101799.16;;;-1.05;49.96
75656;BME280;64252;51.094;13.714;2024-01-11T05:27:52;101796.34;;;-0.64;49.59
75656;BME280;64252;51.094;13.714;2024-01-11T05:30:18;101797.50;;;-0.75;50.20
75656;BME280;64252;51.094;13.714;2024-01-11T05:32:44;101785.22;;;-0.54;49.62
75656;BME280;64252;51.094;13.714;2024-01-11T05:35:09;101788.56;;;-0.57;49.19
75656;BME280;64252;51.094;13.714;2024-01-11T05:37:36;101791.78;;;-0.15;48.58
75656;BME280;64252;51.094;13.714;2024-01-11T05:40:02;101786.66;;;0.13;47.61
75656;BME280;64252;51.094;13.714;2024-01-11T05:42:28;101791.28;;;-0.32;48.60
75656;BME280;64252;51.094;13.714;2024-01-11T05:44:54;101803.41;;;-0.08;47.71
75656;BME280;64252;51.094;13.714;2024-01-11T05:47:19;101806.34;;;-0.73;49.35
75656;BME280;64252;51.094;13.714;2024-01-11T05:49:45;101811.56;;;-0.47;48.79
75656;BME280;64252;51.094;13.714;2024-01-11T05:52:11;101801.59;;;-0.53;49.58
75656;BME280;64252;51.094;13.714;2024-01-11T05:54:37;101811.75;;;-0.13;48.27
75656;BME280;64252;51.094;13.714;2024-01-11T05:57:02;101816.19;;;-0.07;47.93
75656;BME280;64252;51.094;13.714;2024-01-11T05:59:28;101828.44;;;-0.33;48.09
75656;BME280;64252;51.094;13.714;2024-01-11T06:01:54;101817.94;;;-0.56;48.99
75656;BME280;64252;51.094;13.714;2024-01-11T06:04:19;101809.69;;;-1.12;50.59
75656;BME280;64252;51.094;13.714;2024-01-11T06:06:45;101800.19;;;-0.40;49.08
75656;BME280;64252;51.094;13.714;2024-01-11T06:09:11;101810.69;;;-0.32;48.60
75656;BME280;64252;51.094;13.714;2024-01-11T06:11:36;101815.06;;;-0.06;48.06
75656;BME280;64252;51.094;13.714;2024-01-11T06:14:02;101812.84;;;-0.09;47.72
75656;BME280;64252;51.094;13.714;2024-01-11T06:16:28;101827.91;;;-0.30;47.87
75656;BME280;64252;51.094;13.714;2024-01-11T06:18:54;101820.69;;;-0.31;48.32
75656;BME280;64252;51.094;13.714;2024-01-11T06:21:20;101825.16;;;-0.35;48.82
75656;BME280;64252;51.094;13.714;2024-01-11T06:23:46;101826.50;;;-0.27;48.33
75656;BME280;64252;51.094;13.714;2024-01-11T06:26:11;101830.34;;;-0.18;48.09
75656;BME280;64252;51.094;13.714;2024-01-11T06:28:37;101824.59;;;-0.47;48.77
75656;BME280;64252;51.094;13.714;2024-01-11T06:31:03;101829.53;;;-0.19;48.01
75656;BME280;64252;51.094;13.714;2024-01-11T06:33:29;101822.94;;;-0.43;48.72
75656;BME280;64252;51.094;13.714;2024-01-11T06:35:55;101817.88;;;-0.11;48.04
75656;BME280;64252;51.094;13.714;2024-01-11T06:38:21;101822.63;;;-0.36;48.57
75656;BME280;64252;51.094;13.714;2024-01-11T06:40:48;101817.31;;;-0.23;48.37
75656;BME280;64252;51.094;13.714;2024-01-11T06:43:14;101803.31;;;-0.97;50.06
75656;BME280;64252;51.094;13.714;2024-01-11T06:45:42;101797.13;;;-0.38;48.84
75656;BME280;64252;51.094;13.714;2024-01-11T06:48:08;101808.13;;;-0.08;47.78
75656;BME280;64252;51.094;13.714;2024-01-11T06:50:33;101779.69;;;-0.59;49.34
75656;BME280;64252;51.094;13.714;2024-01-11T06:53:00;101776.53;;;-0.27;48.71
75656;BME280;64252;51.094;13.714;2024-01-11T06:55:26;101782.28;;;-0.04;47.73
75656;BME280;64252;51.094;13.714;2024-01-11T06:57:51;101774.56;;;-0.12;47.82
75656;BME280;64252;51.094;13.714;2024-01-11T07:00:17;101769.56;;;-0.15;48.40
75656;BME280;64252;51.094;13.714;2024-01-11T07:02:43;101769.09;;;-0.47;48.37
75656;BME280;64252;51.094;13.714;2024-01-11T07:05:09;101760.53;;;-0.61;49.07
75656;BME280;64252;51.094;13.714;2024-01-11T07:07:36;101757.34;;;-0.19;47.53
75656;BME280;64252;51.094;13.714;2024-01-11T07:10:01;101765.13;;;-0.11;47.55
75656;BME280;64252;51.094;13.714;2024-01-11T07:12:27;101763.88;;;-0.49;48.35
75656;BME280;64252;51.094;13.714;2024-01-11T07:14:53;101758.25;;;-0.28;48.07
75656;BME280;64252;51.094;13.714;2024-01-11T07:17:18;101753.34;;;0.13;47.25
75656;BME280;64252;51.094;13.714;2024-01-11T07:19:44;101770.34;;;-0.04;47.91
75656;BME280;64252;51.094;13.714;2024-01-11T07:22:11;101747.44;;;0.19;47.57
75656;BME280;64252;51.094;13.714;2024-01-11T07:24:37;101758.38;;;0.50;46.42
75656;BME280;64252;51.094;13.714;2024-01-11T07:27:06;101761.06;;;0.65;45.81
75656;BME280;64252;51.094;13.714;2024-01-11T07:29:35;101752.56;;;0.46;46.24
75656;BME280;64252;51.094;13.714;2024-01-11T07:32:00;101743.16;;;-0.07;47.77
75656;BME280;64252;51.094;13.714;2024-01-11T07:34:27;101748.75;;;0.37;46.88
75656;BME280;64252;51.094;13.714;2024-01-11T07:36:53;101769.59;;;-0.20;48.42
75656;BME280;64252;51.094;13.714;2024-01-11T07:39:19;101759.50;;;0.49;47.00
75656;BME280;64252;51.094;13.714;2024-01-11T07:41:45;101753.13;;;0.43;47.40
75656;BME280;64252;51.094;13.714;2024-01-11T07:44:10;101761.53;;;1.06;46.33
75656;BME280;64252;51.094;13.714;2024-01-11T07:46:36;101762.28;;;1.16;45.65
75656;BME280;64252;51.094;13.714;2024-01-11T07:49:03;101752.19;;;0.97;46.52
75656;BME280;64252;51.094;13.714;2024-01-11T07:51:28;101746.84;;;1.29;45.64
75656;BME280;64252;51.094;13.714;2024-01-11T07:53:54;101746.63;;;0.97;46.87
75656;BME280;64252;51.094;13.714;2024-01-11T07:56:20;101749.72;;;1.19;46.13
75656;BME280;64252;51.094;13.714;2024-01-11T07:58:45;101752.22;;;1.49;45.32
75656;BME280;64252;51.094;13.714;2024-01-11T08:01:11;101771.09;;;1.52;45.58
75656;BME280;64252;51.094;13.714;2024-01-11T08:03:38;101771.19;;;1.42;45.59
75656;BME280;64252;51.094;13.714;2024-01-11T08:06:04;101784.88;;;1.10;46.67
75656;BME280;64252;51.094;13.714;2024-01-11T08:08:34;101785.66;;;1.15;46.77
75656;BME280;64252;51.094;13.714;2024-01-11T08:11:00;101788.97;;;1.46;46.08
75656;BME280;64252;51.094;13.714;2024-01-11T08:13:25;101782.72;;;1.83;45.55
75656;BME280;64252;51.094;13.714;2024-01-11T08:15:51;101767.25;;;1.72;46.17
75656;BME280;64252;51.094;13.714;2024-01-11T08:18:19;101744.91;;;2.01;45.40
75656;BME280;64252;51.094;13.714;2024-01-11T08:20:44;101752.81;;;2.12;46.19
75656;BME280;64252;51.094;13.714;2024-01-11T08:23:10;101760.69;;;2.48;44.70
75656;BME280;64252;51.094;13.714;2024-01-11T08:25:36;101763.94;;;2.87;44.12
75656;BME280;64252;51.094;13.714;2024-01-11T08:28:02;101767.13;;;2.99;44.19
75656;BME280;64252;51.094;13.714;2024-01-11T08:32:55;101777.91;;;2.69;44.45
75656;BME280;64252;51.094;13.714;2024-01-11T08:35:21;101768.16;;;3.49;42.76
75656;BME280;64252;51.094;13.714;2024-01-11T08:37:47;101767.28;;;3.81;42.37
75656;BME280;64252;51.094;13.714;2024-01-11T08:40:13;101766.94;;;3.83;41.87
75656;BME280;64252;51.094;13.714;2024-01-11T08:42:39;101753.56;;;4.21;41.38
75656;BME280;64252;51.094;13.714;2024-01-11T08:45:06;101754.53;;;4.52;41.18
75656;BME280;64252;51.094;13.714;2024-01-11T08:47:36;101761.94;;;4.34;41.26
75656;BME280;64252;51.094;13.714;2024-01-11T08:50:04;101765.34;;;4.45;40.55
75656;BME280;64252;51.094;13.714;2024-01-11T08:52:32;101765.28;;;5.17;39.28
75656;BME280;64252;51.094;13.714;2024-01-11T08:54:58;101763.41;;;4.90;40.91
75656;BME280;64252;51.094;13.714;2024-01-11T08:57:24;101759.94;;;4.49;41.36
75656;BME280;64252;51.094;13.714;2024-01-11T08:59:52;101750.97;;;4.24;41.34
75656;BME280;64252;51.094;13.714;2024-01-11T09:02:18;101739.78;;;4.24;41.43
75656;BME280;64252;51.094;13.714;2024-01-11T09:04:44;101743.66;;;3.46;43.23
75656;BME280;64252;51.094;13.714;2024-01-11T09:07:10;101753.50;;;3.85;42.44
75656;BME280;64252;51.094;13.714;2024-01-11T09:09:35;101760.19;;;3.29;43.71
75656;BME280;64252;51.094;13.714;2024-01-11T09:12:01;101761.78;;;3.76;43.56
75656;BME280;64252;51.094;13.714;2024-01-11T09:14:28;101766.75;;;3.66;43.22
75656;BME280;64252;51.094;13.714;2024-01-11T09:16:53;101764.81;;;3.20;44.25
75656;BME280;64252;51.094;13.714;2024-01-11T09:19:20;101767.81;;;4.47;42.10
75656;BME280;64252;51.094;13.714;2024-01-11T09:21:46;101766.00;;;4.28;42.00
75656;BME280;64252;51.094;13.714;2024-01-11T09:24:11;101765.88;;;4.69;42.37
75656;BME280;64252;51.094;13.714;2024-01-11T09:26:37;101765.59;;;4.93;41.42
75656;BME280;64252;51.094;13.714;2024-01-11T09:29:02;101770.16;;;4.04;42.46
75656;BME280;64252;51.094;13.714;2024-01-11T09:31:29;101762.78;;;5.46;40.99
75656;BME280;64252;51.094;13.714;2024-01-11T09:33:54;101754.72;;;6.15;40.08
75656;BME280;64252;51.094;13.714;2024-01-11T09:36:22;101764.34;;;6.57;39.12
75656;BME280;64252;51.094;13.714;2024-01-11T09:38:48;101763.00;;;6.29;39.67
75656;BME280;64252;51.094;13.714;2024-01-11T09:41:14;101777.19;;;6.41;39.54
75656;BME280;64252;51.094;13.714;2024-01-11T09:43:41;101787.44;;;5.58;40.67
75656;BME280;64252;51.094;13.714;2024-01-11T09:46:09;101783.28;;;5.86;40.71
75656;BME280;64252;51.094;13.714;2024-01-11T09:48:37;101793.50;;;5.82;40.07
75656;BME280;64252;51.094;13.714;2024-01-11T09:51:08;101783.06;;;6.87;39.42
75656;BME280;64252;51.094;13.714;2024-01-11T09:53:35;101779.22;;;6.49;38.98
75656;BME280;64252;51.094;13.714;2024-01-11T09:56:07;101753.16;;;5.92;39.62
75656;BME280;64252;51.094;13.714;2024-01-11T09:58:34;101756.25;;;6.55;38.97
75656;BME280;64252;51.094;13.714;2024-01-11T10:01:03;101751.78;;;6.29;39.72
75656;BME280;64252;51.094;13.714;2024-01-11T10:03:32;101744.22;;;5.90;40.50
75656;BME280;64252;51.094;13.714;2024-01-11T10:05:58;101752.75;;;5.85;39.71
75656;BME280;64252;51.094;13.714;2024-01-11T10:08:26;101746.25;;;5.98;39.65
75656;BME280;64252;51.094;13.714;2024-01-11T10:10:52;101731.28;;;6.20;39.80
75656;BME280;64252;51.094;13.714;2024-01-11T10:13:18;101742.53;;;5.41;40.61
75656;BME280;64252;51.094;13.714;2024-01-11T10:15:44;101737.72;;;5.72;40.71
75656;BME280;64252;51.094;13.714;2024-01-11T10:18:10;101741.25;;;5.24;41.32
75656;BME280;64252;51.094;13.714;2024-01-11T10:20:37;101727.16;;;4.85;41.79
75656;BME280;64252;51.094;13.714;2024-01-11T10:23:03;101724.97;;;5.04;41.42
75656;BME280;64252;51.094;13.714;2024-01-11T10:25:29;101719.41;;;4.82;41.75
75656;BME280;64252;51.094;13.714;2024-01-11T10:27:55;101728.97;;;4.09;43.51
75656;BME280;64252;51.094;13.714;2024-01-11T10:30:21;101728.16;;;4.67;42.88
75656;BME280;64252;51.094;13.714;2024-01-11T10:32:49;101722.97;;;4.96;41.89
75656;BME280;64252;51.094;13.714;2024-01-11T10:35:15;101720.22;;;5.27;41.55
75656;BME280;64252;51.094;13.714;2024-01-11T10:37:43;101716.69;;;4.32;43.01
75656;BME280;64252;51.094;13.714;2024-01-11T10:40:10;101718.63;;;5.12;41.98
75656;BME280;64252;51.094;13.714;2024-01-11T10:42:41;101710.97;;;5.97;40.44
75656;BME280;64252;51.094;13.714;2024-01-11T10:45:13;101701.94;;;6.60;39.53
75656;BME280;64252;51.094;13.714;2024-01-11T10:47:54;101689.09;;;5.77;39.95
75656;BME280;64252;51.094;13.714;2024-01-11T10:50:23;101696.81;;;6.88;38.78
75656;BME280;64252;51.094;13.714;2024-01-11T10:53:11;101689.56;;;6.87;38.10
75656;BME280;64252;51.094;13.714;2024-01-11T10:55:38;101696.25;;;5.12;40.77
75656;BME280;64252;51.094;13.714;2024-01-11T10:58:06;101690.38;;;5.62;39.94
75656;BME280;64252;51.094;13.714;2024-01-11T11:00:36;101691.91;;;5.85;39.95
75656;BME280;64252;51.094;13.714;2024-01-11T11:03:05;101684.59;;;6.06;38.80
75656;BME280;64252;51.094;13.714;2024-01-11T11:05:34;101681.53;;;5.86;39.18
75656;BME280;64252;51.094;13.714;2024-01-11T11:08:03;101665.28;;;5.96;39.38
75656;BME280;64252;51.094;13.714;2024-01-11T11:10:32;101664.97;;;5.58;39.41
75656;BME280;64252;51.094;13.714;2024-01-11T11:13:00;101661.66;;;6.13;39.04
75656;BME280;64252;51.094;13.714;2024-01-11T11:15:29;101668.09;;;6.74;38.13
75656;BME280;64252;51.094;13.714;2024-01-11T11:17:55;101653.91;;;6.70;37.94
75656;BME280;64252;51.094;13.714;2024-01-11T11:20:21;101651.91;;;7.43;37.05
75656;BME280;64252;51.094;13.714;2024-01-11T11:23:04;101648.06;;;7.10;37.46
75656;BME280;64252;51.094;13.714;2024-01-11T11:25:30;101653.91;;;6.87;37.35
75656;BME280;64252;51.094;13.714;2024-01-11T11:27:56;101645.53;;;7.17;36.69
75656;BME280;64252;51.094;13.714;2024-01-11T11:30:22;101641.63;;;7.47;36.51
75656;BME280;64252;51.094;13.714;2024-01-11T11:32:48;101633.50;;;7.07;36.56
75656;BME280;64252;51.094;13.714;2024-01-11T11:35:14;101624.81;;;8.18;35.46
75656;BME280;64252;51.094;13.714;2024-01-11T11:37:40;101625.00;;;7.33;36.04
75656;BME280;64252;51.094;13.714;2024-01-11T11:40:07;101621.84;;;7.93;35.52
75656;BME280;64252;51.094;13.714;2024-01-11T11:42:37;101621.56;;;7.57;34.85
75656;BME280;64252;51.094;13.714;2024-01-11T11:45:03;101621.59;;;8.28;33.99
75656;BME280;64252;51.094;13.714;2024-01-11T11:47:35;101627.31;;;8.40;34.58
75656;BME280;64252;51.094;13.714;2024-01-11T11:50:08;101617.34;;;7.04;35.80
75656;BME280;64252;51.094;13.714;2024-01-11T11:52:39;101620.63;;;8.24;33.95
75656;BME280;64252;51.094;13.714;2024-01-11T11:55:07;101625.53;;;7.85;34.63
75656;BME280;64252;51.094;13.714;2024-01-11T11:57:33;101636.19;;;6.95;35.29
75656;BME280;64252;51.094;13.714;2024-01-11T12:00:00;101639.91;;;6.53;35.72
75656;BME280;64252;51.094;13.714;2024-01-11T12:02:36;101627.16;;;6.81;35.33
75656;BME280;64252;51.094;13.714;2024-01-11T12:05:02;101621.69;;;7.31;35.14
75656;BME280;64252;51.094;13.714;2024-01-11T12:07:30;101625.88;;;7.17;35.43
75656;BME280;64252;51.094;13.714;2024-01-11T12:09:56;101626.50;;;7.89;34.43
75656;BME280;64252;51.094;13.714;2024-01-11T12:12:22;101616.81;;;7.49;33.88
75656;BME280;64252;51.094;13.714;2024-01-11T12:14:48;101619.09;;;6.54;35.83
75656;BME280;64252;51.094;13.714;2024-01-11T12:17:15;101610.72;;;7.47;34.67
75656;BME280;64252;51.094;13.714;2024-01-11T12:19:41;101610.53;;;6.42;35.93
75656;BME280;64252;51.094;13.714;2024-01-11T12:22:07;101615.91;;;7.66;34.42
75656;BME280;64252;51.094;13.714;2024-01-11T12:24:33;101609.38;;;7.53;34.77
75656;BME280;64252;51.094;13.714;2024-01-11T12:27:02;101602.78;;;7.02;35.34
75656;BME280;64252;51.094;13.714;2024-01-11T12:29:29;101596.63;;;7.18;35.53
75656;BME280;64252;51.094;13.714;2024-01-11T12:31:58;101597.81;;;7.46;34.78
75656;BME280;64252;51.094;13.714;2024-01-11T12:34:25;101596.09;;;6.69;35.79
75656;BME280;64252;51.094;13.714;2024-01-11T12:36:54;101596.31;;;6.47;36.36
75656;BME280;64252;51.094;13.714;2024-01-11T12:39:24;101593.31;;;6.69;36.10
75656;BME280;64252;51.094;13.714;2024-01-11T12:41:50;101598.09;;;6.69;36.13
75656;BME280;64252;51.094;13.714;2024-01-11T12:44:17;101589.63;;;6.94;35.50